Capitol Logistics 661


KMIA
Miami International Airport
Miami, Florida, US
SPJC
Jorge Chávez International Airport
Lima, , PE

Route Details

Aircraft Information
Primary: Boeing 767-300BDSF
Backup: Not Available
Route Data
Distance: 2281nm
Sched. Duration: 6h 00m
Avg. Duration: 5h 42m (-57m)
Times Flown: 8
Recm'd Route: EONNS2 EONNS A509 URSUS UL780 LIVUD UL780 TRU UV1 ATATU ATATU2
Planned Altitude: 35,000ft
Origin Wx: KMIA 250953Z 09004KT 10SM -RA FEW018 FEW033 BKN075 OVC130 24/24 A2985 RMK AO2 LTG DSNT E SLP109 P0002 T02440239 $
Dest. Wx: SPJC 251000Z 19004KT 8000 OVC009 16/14 Q1013 NOSIG RMK PP000
Notes:

Financial History
Total Freight: 671,305lbs
Average Load: 83,913lbs/flt
Fuel Used: 471,890lbs
Avg. Fuel Used: 58,986lbs/flt
Fuel Expense: $580,425
Avg. Fuel Expense: $72,553
Avg. Fuel Cost: $1.23/lbs
Total Gross Income: $1,312,926
Pilot Pay: $1,632
Total Expenses: $142,212
Total Revenue: $580,198
Average Revenue: $164,115.77